Nyala, Nevada Weather observations

Data are for observation ending at time listed.
 Day   Time    Ave.   Ave.  Ave.  Vector   Max.   Stn.    Total    Solar   Ave.  
  of    of     Air    Rel.  Wind   Wind    Wind   Baro.  Precip.   Rad.    Soil  
Year   Day     Temp.  Hum.  Speed  Dir.    Gust   Pres.                    Temp. 
2016   (PST)    F      %     mph   deg.    mph     mb.     in.     W/m2     F   
------------------------------------------------------------------------------
 148    4:00   46.6    71    2.1   176      4.5    850     0.00       0    65.6
 148    5:00   47.5    69    1.5   159      3.5    851     0.00       3    64.6
 148    6:00   50.1    66    1.6   142      3.4    851     0.00      52    63.8
 148    7:00   57.3    47    2.4   241      5.5    851     0.00     147    63.4
 148    8:00   61.4    40    2.4   244      6.2    851     0.00     235    63.6
 148    9:00   65.8    33    1.5   212      5.5    851     0.00     316    64.4
 148   10:00   69.3    26    2.6   274      8.4    851     0.00     381    65.5
 148   11:00   72.1    19    3.4   332      9.5    850     0.00     424    66.7
 148   12:00   73.2    17    5.0   254     14.3    850     0.00     441    68.5
 148   13:00   74.8    16    4.0   228     13.4    849     0.00     434    70.5
 148   14:00   76.1    15    3.6   285     11.4    848     0.00     403    74.4
 148   15:00   77.0    15    3.4   238     13.6    848     0.00     350    78.2
 148   16:00   77.4    14    4.4   159     15.1    847     0.00     259    80.9
 148   17:00   76.1    18    4.9   217     15.2    846     0.00     195    82.3
 148   18:00   72.0    24    3.3   244      8.2    846     0.00      45    82.6
 148   19:00   70.2    26    1.7   236     13.8    846     0.00      24    81.2
 148   20:00   65.7    26    2.1   126      6.6    847     0.00       0    79.3
 148   21:00   64.4    27    2.6    87      8.6    848     0.00       0    77.3
 148   22:00   65.9    24    4.0    35      9.2    848     0.00       0    75.6
 148   23:00   57.1    41    3.4   180      6.4    848     0.00       0    74.2
 149    0:00   59.3    32    2.9    67      8.0    848     0.00       0    72.8
 149    1:00   55.2    44    1.8    88      5.1    849     0.00       0    71.5
 149    2:00   53.4    43    1.5    31      4.1    849     0.00       0    70.2
 149    3:00   54.7    41    2.1    42      9.3    849     0.00       0    69.1

Return to Nyala, Nevada graphs page.


Western Regional Climate Center,wrcc@dri.edu